createdAt,value
2018-11-03T00:01:55.326Z,99470.94
2018-11-03T00:04:07.598Z,99471.89
2018-11-03T00:06:19.818Z,99461.15
2018-11-03T00:08:32.280Z,99454.99
2018-11-03T00:10:44.500Z,99451.42
2018-11-03T00:12:56.743Z,99453.14
2018-11-03T00:15:09.479Z,99453.06
2018-11-03T00:17:21.693Z,99455.67
2018-11-03T00:19:33.923Z,99461.30
2018-11-03T00:21:46.222Z,99457.86
2018-11-03T00:23:58.426Z,99464.27
2018-11-03T00:26:10.657Z,99462.64
2018-11-03T00:28:22.911Z,99461.01
2018-11-03T00:30:35.234Z,99463.73
2018-11-03T00:32:47.499Z,99460.76
2018-11-03T00:34:59.698Z,99464.64
2018-11-03T00:37:11.940Z,99459.30
2018-11-03T00:39:24.190Z,99459.18
2018-11-03T00:41:36.420Z,99457.72
2018-11-03T00:43:48.664Z,99453.90
2018-11-03T00:46:00.917Z,99455.50
2018-11-03T00:48:13.120Z,99445.06
2018-11-03T00:50:25.442Z,99440.34
2018-11-03T00:52:37.699Z,99435.56
2018-11-03T00:54:49.894Z,99424.31
2018-11-03T00:57:02.149Z,99424.38
2018-11-03T00:59:14.384Z,99428.28
2018-11-03T01:01:26.646Z,99429.72
2018-11-03T01:03:38.920Z,99419.52
2018-11-03T01:05:51.094Z,99424.78
2018-11-03T01:08:03.429Z,99419.69
2018-11-03T01:10:16.454Z,99426.16
2018-11-03T01:12:28.678Z,99423.95
2018-11-03T01:14:40.916Z,99416.20
2018-11-03T01:16:53.125Z,99416.09
2018-11-03T01:19:05.387Z,99414.73
2018-11-03T01:21:17.570Z,99411.34
2018-11-03T01:23:29.835Z,99416.48
2018-11-03T01:25:42.010Z,99410.95
2018-11-03T01:27:54.258Z,99413.37
2018-11-03T01:30:08.692Z,99413.90
2018-11-03T01:32:20.905Z,99412.69
2018-11-03T01:34:33.112Z,99420.92
2018-11-03T01:36:45.303Z,99417.19
2018-11-03T01:38:57.488Z,99423.34
2018-11-03T01:41:09.675Z,99427.67
2018-11-03T01:43:21.902Z,99435.81
2018-11-03T01:45:34.147Z,99437.50
2018-11-03T01:47:46.383Z,99439.25
2018-11-03T01:49:58.606Z,99440.45
2018-11-03T01:52:10.782Z,99440.83
2018-11-03T01:54:23.433Z,99441.98
2018-11-03T01:56:35.621Z,99448.50
2018-11-03T01:58:47.852Z,99449.05
2018-11-03T02:01:00.135Z,99452.98
2018-11-03T02:03:12.350Z,99450.43
2018-11-03T02:05:24.576Z,99452.23
2018-11-03T02:07:36.794Z,99451.09
2018-11-03T02:09:49.018Z,99449.86
2018-11-03T02:12:01.259Z,99454.60
2018-11-03T02:14:13.448Z,99453.68
2018-11-03T02:16:25.675Z,99457.42
2018-11-03T02:18:37.918Z,99459.98
2018-11-03T02:20:50.109Z,99464.17
2018-11-03T02:23:02.293Z,99464.09
2018-11-03T02:25:14.473Z,99458.92
2018-11-03T02:27:26.631Z,99450.66
2018-11-03T02:29:38.840Z,99454.45
2018-11-03T02:31:51.136Z,99451.93
2018-11-03T02:34:03.318Z,99442.42
2018-11-03T02:36:15.536Z,99439.78
2018-11-03T02:38:27.757Z,99436.33
2018-11-03T02:40:39.934Z,99439.70
2018-11-03T02:42:52.139Z,99439.31
2018-11-03T02:45:05.645Z,99432.45
2018-11-03T02:47:17.884Z,99434.98
2018-11-03T02:49:30.082Z,99437.51
2018-11-03T02:51:42.268Z,99435.73
2018-11-03T02:53:54.527Z,99435.27
2018-11-03T02:56:06.732Z,99427.59
2018-11-03T02:58:18.952Z,99429.72
2018-11-03T03:00:31.137Z,99428.87
2018-11-03T03:02:43.372Z,99434.89
2018-11-03T03:04:55.538Z,99432.31
2018-11-03T03:07:07.727Z,99430.65
2018-11-03T03:09:19.903Z,99437.96
2018-11-03T03:11:32.124Z,99429.81
2018-11-03T03:13:44.333Z,99432.34
2018-11-03T03:15:56.579Z,99433.60
2018-11-03T03:18:08.829Z,99433.02
2018-11-03T03:20:21.025Z,99436.89
2018-11-03T03:22:33.341Z,99434.30
2018-11-03T03:24:45.574Z,99432.14
2018-11-03T03:26:57.838Z,99431.24
2018-11-03T03:29:10.203Z,99440.60
2018-11-03T03:31:22.277Z,99442.93
2018-11-03T03:33:34.603Z,99446.81
2018-11-03T03:35:46.783Z,99443.77
2018-11-03T03:37:58.950Z,99443.23
2018-11-03T03:40:11.198Z,99442.73
2018-11-03T03:42:23.402Z,99444.42
2018-11-03T03:44:35.661Z,99447.84
2018-11-03T03:46:47.831Z,99453.50
2018-11-03T03:49:00.151Z,99454.45
2018-11-03T03:51:12.387Z,99460.53
2018-11-03T03:53:24.591Z,99456.73
2018-11-03T03:55:36.843Z,99452.86
2018-11-03T03:57:49.014Z,99461.04
2018-11-03T04:00:01.204Z,99455.81
2018-11-03T04:02:13.384Z,99457.10
2018-11-03T04:04:25.601Z,99452.41
2018-11-03T04:06:37.777Z,99454.23
2018-11-03T04:08:49.980Z,99455.59
2018-11-03T04:11:02.194Z,99458.98
2018-11-03T04:13:14.354Z,99468.05
2018-11-03T04:15:26.610Z,99467.08
2018-11-03T04:17:38.810Z,99470.94
2018-11-03T04:19:51.017Z,99468.80
2018-11-03T04:22:03.239Z,99468.06
2018-11-03T04:24:15.443Z,99461.60
2018-11-03T04:26:28.723Z,99463.20
2018-11-03T04:28:40.990Z,99457.41
2018-11-03T04:30:53.201Z,99465.23
2018-11-03T04:33:05.405Z,99465.63
2018-11-03T04:35:17.651Z,99468.20
2018-11-03T04:37:29.876Z,99462.55
2018-11-03T04:39:42.043Z,99459.41
2018-11-03T04:41:54.286Z,99457.58
2018-11-03T04:44:06.469Z,99458.78
2018-11-03T04:46:18.643Z,99463.87
2018-11-03T04:48:30.888Z,99461.22
2018-11-03T04:50:43.102Z,99458.63
2018-11-03T04:52:55.319Z,99454.42
2018-11-03T04:55:08.036Z,99454.27
2018-11-03T04:57:20.362Z,99450.48
2018-11-03T04:59:32.531Z,99452.37
2018-11-03T05:01:44.699Z,99450.54
2018-11-03T05:03:56.986Z,99450.09
2018-11-03T05:06:09.167Z,99455.93
2018-11-03T05:08:21.417Z,99452.47
2018-11-03T05:10:33.846Z,99457.22
2018-11-03T05:12:46.025Z,99456.25
2018-11-03T05:14:58.199Z,99459.71
2018-11-03T05:17:10.399Z,99454.63
2018-11-03T05:19:22.581Z,99455.50
2018-11-03T05:21:34.800Z,99455.13
2018-11-03T05:23:46.972Z,99448.21
2018-11-03T05:25:59.213Z,99451.70
2018-11-03T05:28:11.355Z,99452.20
2018-11-03T05:30:23.533Z,99455.21
2018-11-03T05:32:35.978Z,99454.80
2018-11-03T05:34:48.208Z,99455.64
2018-11-03T05:37:00.403Z,99454.31
2018-11-03T05:39:12.675Z,99457.33
2018-11-03T05:41:24.892Z,99456.42
2018-11-03T05:43:37.090Z,99457.33
2018-11-03T05:45:49.275Z,99458.63
2018-11-03T05:48:01.470Z,99458.63
2018-11-03T05:50:13.710Z,99463.34
2018-11-03T05:52:25.887Z,99461.99
2018-11-03T05:54:38.110Z,99460.22
2018-11-03T05:56:50.279Z,99464.10
2018-11-03T05:59:02.660Z,99467.98
2018-11-03T06:01:14.750Z,99464.94
2018-11-03T06:03:26.926Z,99469.58
2018-11-03T06:05:39.135Z,99471.72
2018-11-03T06:07:51.434Z,99466.15
2018-11-03T06:10:04.321Z,99458.78
2018-11-03T06:12:16.627Z,99468.73
2018-11-03T06:14:28.898Z,99465.72
2018-11-03T06:16:41.164Z,99467.98
2018-11-03T06:18:53.355Z,99463.65
2018-11-03T06:21:05.639Z,99466.69
2018-11-03T06:23:17.856Z,99468.37
2018-11-03T06:25:30.034Z,99464.55
2018-11-03T06:27:42.246Z,99458.08
2018-11-03T06:29:54.423Z,99455.91
2018-11-03T06:32:06.700Z,99449.45
2018-11-03T06:34:18.865Z,99451.08
2018-11-03T06:36:31.096Z,99451.02
2018-11-03T06:38:43.341Z,99446.77
2018-11-03T06:40:55.530Z,99452.45
2018-11-03T06:43:08.175Z,99453.30
2018-11-03T06:45:20.366Z,99458.11
2018-11-03T06:47:32.630Z,99455.07
2018-11-03T06:49:44.815Z,99449.42
2018-11-03T06:51:57.047Z,99456.73
2018-11-03T06:54:09.178Z,99459.71
2018-11-03T06:56:21.370Z,99460.91
2018-11-03T06:58:33.601Z,99462.20
2018-11-03T07:00:45.807Z,99467.47
2018-11-03T07:02:58.018Z,99465.33
2018-11-03T07:05:10.252Z,99470.42
2018-11-03T07:07:22.454Z,99471.09
2018-11-03T07:09:34.714Z,99469.20
2018-11-03T07:11:46.991Z,99472.45
2018-11-03T07:13:59.142Z,99479.20
2018-11-03T07:16:11.347Z,99472.12
2018-11-03T07:18:23.582Z,99470.65
2018-11-03T07:20:35.793Z,99467.00
2018-11-03T07:22:47.980Z,99468.11
2018-11-03T07:25:00.190Z,99469.77
2018-11-03T07:27:12.370Z,99461.54
2018-11-03T07:29:24.639Z,99469.70
2018-11-03T07:31:36.884Z,99471.55
2018-11-03T07:33:49.064Z,99470.67
2018-11-03T07:36:01.272Z,99473.04
2018-11-03T07:38:13.511Z,99469.03
2018-11-03T07:40:25.734Z,99471.46
2018-11-03T07:42:38.352Z,99471.75
2018-11-03T07:44:50.430Z,99473.86
2018-11-03T07:47:02.632Z,99471.47
2018-11-03T07:49:16.878Z,99470.95
2018-11-03T07:51:28.829Z,99474.81
2018-11-03T07:53:41.014Z,99476.48
2018-11-03T07:55:53.253Z,99479.02
2018-11-03T07:58:05.489Z,99476.52
2018-11-03T08:00:17.753Z,99476.04
2018-11-03T08:02:29.923Z,99476.84
2018-11-03T08:04:42.134Z,99472.73
2018-11-03T08:06:54.357Z,99464.86
2018-11-03T08:09:07.917Z,99465.28
2018-11-03T08:11:20.086Z,99464.31
2018-11-03T08:13:32.317Z,99465.15
2018-11-03T08:15:44.610Z,99467.32
2018-11-03T08:17:56.791Z,99469.84
2018-11-03T08:20:10.090Z,99472.34
2018-11-03T08:22:22.370Z,99473.47
2018-11-03T08:24:34.600Z,99470.22
2018-11-03T08:26:46.831Z,99472.08
2018-11-03T08:28:59.090Z,99475.80
2018-11-03T08:31:11.316Z,99476.53
2018-11-03T08:33:23.509Z,99484.21
2018-11-03T08:35:35.758Z,99487.05
2018-11-03T08:37:48.071Z,99494.84
2018-11-03T08:40:00.300Z,99494.48
2018-11-03T08:42:12.542Z,99486.64
2018-11-03T08:44:24.714Z,99486.08
2018-11-03T08:46:36.963Z,99479.95
2018-11-03T08:48:49.246Z,99475.95
2018-11-03T08:51:01.443Z,99469.76
2018-11-03T08:53:13.771Z,99469.66
2018-11-03T08:55:26.024Z,99469.16
2018-11-03T08:57:38.270Z,99467.63
2018-11-03T08:59:50.656Z,99461.38
2018-11-03T09:02:02.723Z,99446.55
2018-11-03T09:04:14.972Z,99441.14
2018-11-03T09:06:27.313Z,99443.59
2018-11-03T09:08:39.450Z,99435.31
2018-11-03T09:10:51.662Z,99433.95
2018-11-03T09:13:04.024Z,99433.38
2018-11-03T09:15:16.327Z,99438.00
2018-11-03T09:17:32.395Z,99435.78
2018-11-03T09:19:44.611Z,99437.77
2018-11-03T09:21:56.918Z,99438.92
2018-11-03T09:24:09.043Z,99441.38
2018-11-03T09:26:21.275Z,99446.34
2018-11-03T09:28:33.473Z,99442.38
2018-11-03T09:30:45.721Z,99443.28
2018-11-03T09:32:57.933Z,99449.31
2018-11-03T09:35:11.174Z,99445.65
2018-11-03T09:37:23.368Z,99455.81
2018-11-03T09:39:35.614Z,99457.95
2018-11-03T09:41:47.853Z,99452.53
2018-11-03T09:44:00.098Z,99455.44
2018-11-03T09:46:12.317Z,99462.16
2018-11-03T09:48:24.547Z,99458.14
2018-11-03T09:50:36.819Z,99445.28
2018-11-03T09:52:49.033Z,99435.69
2018-11-03T09:55:01.235Z,99442.33
2018-11-03T09:57:13.470Z,99450.28
2018-11-03T09:59:25.660Z,99447.60
2018-11-03T10:01:37.957Z,99438.73
2018-11-03T10:03:50.226Z,99437.44
2018-11-03T10:06:02.462Z,99443.28
2018-11-03T10:08:14.670Z,99432.57
2018-11-03T10:10:26.933Z,99425.43
2018-11-03T10:12:39.242Z,99428.41
2018-11-03T10:14:51.522Z,99429.63
2018-11-03T10:17:05.778Z,99426.16
2018-11-03T10:19:19.653Z,99433.37
2018-11-03T10:21:34.834Z,99442.27
2018-11-03T10:23:47.078Z,99433.38
2018-11-03T10:25:59.306Z,99424.09
2018-11-03T10:28:11.582Z,99413.87
2018-11-03T10:30:23.858Z,99417.98
2018-11-03T10:32:37.426Z,99417.66
2018-11-03T10:34:49.658Z,99420.59
2018-11-03T10:37:01.897Z,99418.75
2018-11-03T10:39:14.163Z,99417.98
2018-11-03T10:41:26.345Z,99415.84
2018-11-03T10:43:40.178Z,99414.09
2018-11-03T10:45:52.382Z,99413.17
2018-11-03T10:48:04.956Z,99407.92
2018-11-03T10:50:18.209Z,99409.98
2018-11-03T10:52:30.422Z,99398.41
2018-11-03T10:54:42.657Z,99394.70
2018-11-03T10:56:54.899Z,99390.80
2018-11-03T10:59:07.168Z,99390.34
2018-11-03T11:01:25.063Z,99378.69
2018-11-03T11:03:43.048Z,99375.69
2018-11-03T11:06:00.939Z,99375.93
2018-11-03T11:08:18.631Z,99380.90
2018-11-03T11:10:36.695Z,99374.42
2018-11-03T11:12:49.794Z,99378.14
2018-11-03T11:15:02.083Z,99373.55
2018-11-03T11:17:14.292Z,99370.56
2018-11-03T11:19:26.607Z,99372.84
2018-11-03T11:21:43.600Z,99367.86
2018-11-03T11:23:57.851Z,99370.16
2018-11-03T11:26:10.007Z,99368.37
2018-11-03T11:28:22.207Z,99365.25
2018-11-03T11:30:36.741Z,99359.02
2018-11-03T11:32:49.042Z,99359.72
2018-11-03T11:35:01.230Z,99349.98
2018-11-03T11:37:13.467Z,99345.38
2018-11-03T11:39:26.522Z,99346.86
2018-11-03T11:41:38.757Z,99343.88
2018-11-03T11:43:50.989Z,99341.18
2018-11-03T11:46:03.168Z,99341.47
2018-11-03T11:48:15.431Z,99336.95
2018-11-03T11:50:27.652Z,99338.11
2018-11-03T11:52:39.962Z,99327.30
2018-11-03T11:54:52.251Z,99322.23
2018-11-03T11:57:05.557Z,99311.66
2018-11-03T11:59:17.807Z,99306.11
2018-11-03T12:01:30.082Z,99309.52
2018-11-03T12:03:42.327Z,99308.90
2018-11-03T12:05:54.569Z,99309.95
2018-11-03T12:08:06.821Z,99307.29
2018-11-03T12:10:19.110Z,99301.41
2018-11-03T12:12:31.343Z,99296.03
2018-11-03T12:14:48.297Z,99293.64
2018-11-03T12:17:02.355Z,99289.52
2018-11-03T12:19:14.583Z,99289.92
2018-11-03T12:21:26.779Z,99285.08
2018-11-03T12:23:39.055Z,99288.16
2018-11-03T12:25:51.396Z,99277.26
2018-11-03T12:28:03.566Z,99276.27
2018-11-03T12:30:15.846Z,99269.69
2018-11-03T12:32:28.127Z,99266.64
2018-11-03T12:34:40.372Z,99258.17
2018-11-03T12:36:52.583Z,99250.51
2018-11-03T12:39:06.623Z,99242.67
2018-11-03T12:41:18.869Z,99237.23
2018-11-03T12:43:31.051Z,99238.55
2018-11-03T12:45:43.317Z,99232.53
2018-11-03T12:47:55.574Z,99231.23
2018-11-03T12:50:09.689Z,99229.28
2018-11-03T12:52:21.926Z,99229.00
2018-11-03T12:54:34.998Z,99220.25
2018-11-03T12:56:47.249Z,99211.47
2018-11-03T12:58:59.548Z,99210.63
2018-11-03T13:01:11.679Z,99211.55
2018-11-03T13:03:24.057Z,99209.72
2018-11-03T13:05:36.155Z,99210.64
2018-11-03T13:07:48.380Z,99206.30
2018-11-03T13:10:00.651Z,99205.77
2018-11-03T13:12:12.883Z,99199.25
2018-11-03T13:14:25.048Z,99199.81
2018-11-03T13:16:37.294Z,99200.73
2018-11-03T13:18:49.576Z,99193.33
2018-11-03T13:21:01.832Z,99191.87
2018-11-03T13:23:14.074Z,99199.16
2018-11-03T13:25:26.359Z,99194.66
2018-11-03T13:27:39.218Z,99195.09
2018-11-03T13:29:51.461Z,99193.85
2018-11-03T13:32:03.901Z,99190.73
2018-11-03T13:34:18.227Z,99187.45
2018-11-03T13:36:34.422Z,99178.86
2018-11-03T13:38:46.745Z,99178.19
2018-11-03T13:40:59.077Z,99170.05
2018-11-03T13:43:12.149Z,99173.45
2018-11-03T13:45:24.386Z,99163.29
2018-11-03T13:47:37.612Z,99164.92
2018-11-03T13:49:49.862Z,99163.70
2018-11-03T13:52:03.144Z,99165.84
2018-11-03T13:54:15.417Z,99163.03
2018-11-03T13:56:27.668Z,99160.55
2018-11-03T13:58:39.966Z,99161.02
2018-11-03T14:00:52.196Z,99160.88
2018-11-03T14:03:04.552Z,99168.59
2018-11-03T14:05:16.795Z,99170.88
2018-11-03T14:07:29.056Z,99170.36
2018-11-03T14:09:41.288Z,99175.73
2018-11-03T14:11:53.548Z,99178.53
2018-11-03T14:14:05.863Z,99174.44
2018-11-03T14:16:18.075Z,99176.30
2018-11-03T14:18:30.326Z,99172.86
2018-11-03T14:20:42.676Z,99175.52
2018-11-03T14:22:54.942Z,99170.72
2018-11-03T14:25:14.342Z,99172.60
2018-11-03T14:27:26.569Z,99168.38
2018-11-03T14:29:38.812Z,99172.60
2018-11-03T14:31:51.027Z,99164.63
2018-11-03T14:34:03.300Z,99165.98
2018-11-03T14:36:15.581Z,99172.60
2018-11-03T14:38:27.779Z,99174.00
2018-11-03T14:40:40.101Z,99164.31
2018-11-03T14:42:52.288Z,99155.35
2018-11-03T14:45:05.340Z,99160.50
2018-11-03T14:47:17.556Z,99160.66
2018-11-03T14:49:29.839Z,99154.52
2018-11-03T14:51:42.155Z,99155.45
2018-11-03T14:53:54.406Z,99144.72
2018-11-03T14:56:06.637Z,99146.39
2018-11-03T14:58:18.930Z,99138.76
2018-11-03T15:00:34.977Z,99139.91
2018-11-03T15:02:47.260Z,99139.70
2018-11-03T15:04:59.466Z,99143.45
2018-11-03T15:07:11.747Z,99141.31
2018-11-03T15:09:23.938Z,99137.47
2018-11-03T15:11:36.691Z,99139.70
2018-11-03T15:13:49.109Z,99140.23
2018-11-03T15:16:01.184Z,99138.71
2018-11-03T15:18:13.447Z,99141.78
2018-11-03T15:20:25.691Z,99139.08
2018-11-03T15:22:38.134Z,99141.47
2018-11-03T15:24:50.199Z,99140.89
2018-11-03T15:27:03.025Z,99138.87
2018-11-03T15:29:15.266Z,99140.27
2018-11-03T15:31:27.518Z,99137.81
2018-11-03T15:33:39.770Z,99144.70
2018-11-03T15:35:53.994Z,99138.44
2018-11-03T15:38:08.210Z,99146.41
2018-11-03T15:40:20.435Z,99141.91
2018-11-03T15:42:32.717Z,99142.90
2018-11-03T15:44:45.758Z,99144.27
2018-11-03T15:46:58.031Z,99148.11
2018-11-03T15:49:10.358Z,99142.59
2018-11-03T15:51:22.596Z,99138.00
2018-11-03T15:53:34.850Z,99141.91
2018-11-03T15:55:47.107Z,99142.52
2018-11-03T15:57:59.359Z,99143.92
2018-11-03T16:00:14.581Z,99142.77
2018-11-03T16:02:33.510Z,99142.30
2018-11-03T16:04:45.770Z,99133.66
2018-11-03T16:06:57.995Z,99139.39
2018-11-03T16:09:11.438Z,99136.88
2018-11-03T16:11:23.675Z,99137.03
2018-11-03T16:13:35.920Z,99132.75
2018-11-03T16:15:48.132Z,99128.28
2018-11-03T16:18:00.384Z,99131.67
2018-11-03T16:20:13.179Z,99127.20
2018-11-03T16:22:25.501Z,99132.41
2018-11-03T16:24:37.727Z,99139.85
2018-11-03T16:26:49.946Z,99138.17
2018-11-03T16:29:02.224Z,99140.41
2018-11-03T16:31:14.440Z,99141.86
2018-11-03T16:33:27.523Z,99142.38
2018-11-03T16:35:39.847Z,99139.25
2018-11-03T16:37:52.033Z,99139.31
2018-11-03T16:40:05.328Z,99140.71
2018-11-03T16:42:17.574Z,99142.02
2018-11-03T16:44:29.883Z,99147.34
2018-11-03T16:46:42.151Z,99142.92
2018-11-03T16:48:54.347Z,99149.27
2018-11-03T16:51:06.591Z,99143.31
2018-11-03T16:53:18.864Z,99143.31
2018-11-03T16:55:31.192Z,99147.22
2018-11-03T16:57:43.362Z,99152.42
2018-11-03T16:59:55.615Z,99146.84
2018-11-03T17:02:07.837Z,99154.66
2018-11-03T17:04:20.115Z,99154.25
2018-11-03T17:06:32.548Z,99153.36
2018-11-03T17:08:44.755Z,99155.87
2018-11-03T17:10:57.012Z,99157.26
2018-11-03T17:13:09.281Z,99159.77
2018-11-03T17:15:21.549Z,99153.36
2018-11-03T17:17:33.978Z,99153.36
2018-11-03T17:19:46.291Z,99153.27
2018-11-03T17:21:58.580Z,99146.66
2018-11-03T17:24:12.395Z,99153.02
2018-11-03T17:26:26.671Z,99144.47
2018-11-03T17:28:38.930Z,99144.67
2018-11-03T17:30:51.192Z,99138.70
2018-11-03T17:33:03.712Z,99142.61
2018-11-03T17:35:16.019Z,99144.98
2018-11-03T17:37:28.268Z,99138.02
2018-11-03T17:39:40.484Z,99138.48
2018-11-03T17:41:52.722Z,99137.95
2018-11-03T17:44:14.859Z,99135.88
2018-11-03T17:46:27.035Z,99135.50
2018-11-03T17:48:39.286Z,99135.81
2018-11-03T17:50:51.574Z,99129.00
2018-11-03T17:53:03.982Z,99129.98
2018-11-03T17:55:16.269Z,99129.52
2018-11-03T17:57:28.499Z,99124.87
2018-11-03T17:59:40.763Z,99122.48
2018-11-03T18:01:53.972Z,99125.00
2018-11-03T18:04:07.204Z,99123.10
2018-11-03T18:06:19.434Z,99121.11
2018-11-03T18:08:31.670Z,99118.05
2018-11-03T18:10:43.931Z,99121.64
2018-11-03T18:12:56.192Z,99119.81
2018-11-03T18:15:08.916Z,99113.77
2018-11-03T18:17:21.119Z,99116.74
2018-11-03T18:19:33.337Z,99114.45
2018-11-03T18:21:45.586Z,99109.40
2018-11-03T18:23:57.839Z,99112.06
2018-11-03T18:26:10.179Z,99108.63
2018-11-03T18:28:22.452Z,99096.38
2018-11-03T18:30:34.752Z,99097.91
2018-11-03T18:32:46.939Z,99100.29
2018-11-03T18:34:59.240Z,99092.17
2018-11-03T18:37:11.495Z,99089.19
2018-11-03T18:39:23.738Z,99090.03
2018-11-03T18:41:36.023Z,99087.42
2018-11-03T18:43:48.219Z,99088.64
2018-11-03T18:46:00.482Z,99089.41
2018-11-03T18:48:12.700Z,99087.65
2018-11-03T18:50:25.026Z,99088.95
2018-11-03T18:52:37.361Z,99089.72
2018-11-03T18:54:49.604Z,99080.98
2018-11-03T18:57:01.831Z,99091.03
2018-11-03T18:59:14.127Z,99095.83
2018-11-03T19:01:26.360Z,99089.41
2018-11-03T19:03:38.548Z,99090.25
2018-11-03T19:05:50.865Z,99085.05
2018-11-03T19:08:03.155Z,99085.05
2018-11-03T19:10:15.408Z,99085.82
2018-11-03T19:12:27.740Z,99083.38
2018-11-03T19:14:39.970Z,99082.44
2018-11-03T19:16:52.276Z,99084.67
2018-11-03T19:19:04.856Z,99079.09
2018-11-03T19:21:17.142Z,99079.93
2018-11-03T19:23:29.501Z,99082.75
2018-11-03T19:25:41.721Z,99085.05
2018-11-03T19:27:53.984Z,99075.00
2018-11-03T19:30:08.011Z,99080.21
2018-11-03T19:32:20.295Z,99074.62
2018-11-03T19:34:32.499Z,99070.73
2018-11-03T19:36:44.755Z,99069.98
2018-11-03T19:38:57.065Z,99060.88
2018-11-03T19:41:09.310Z,99058.80
2018-11-03T19:43:21.580Z,99055.87
2018-11-03T19:45:33.802Z,99054.67
2018-11-03T19:47:46.072Z,99049.98
2018-11-03T19:49:58.373Z,99052.59
2018-11-03T19:52:10.568Z,99050.55
2018-11-03T19:54:22.845Z,99044.56
2018-11-03T19:56:35.643Z,99048.84
2018-11-03T19:58:47.927Z,99045.41
2018-11-03T20:01:00.199Z,99044.20
2018-11-03T20:03:12.644Z,99042.43
2018-11-03T20:05:24.763Z,99047.32
2018-11-03T20:07:37.074Z,99040.44
2018-11-03T20:09:49.494Z,99047.78
2018-11-03T20:12:01.771Z,99046.95
2018-11-03T20:14:14.095Z,99049.55
2018-11-03T20:16:26.295Z,99048.77
2018-11-03T20:18:38.558Z,99039.77
2018-11-03T20:20:50.807Z,99041.90
2018-11-03T20:23:03.081Z,99043.57
2018-11-03T20:25:15.351Z,99032.41
2018-11-03T20:27:27.582Z,99032.79
2018-11-03T20:29:39.817Z,99038.83
2018-11-03T20:31:52.292Z,99034.03
2018-11-03T20:34:04.514Z,99027.06
2018-11-03T20:36:16.814Z,99029.72
2018-11-03T20:38:29.018Z,99023.77
2018-11-03T20:40:41.295Z,99020.34
2018-11-03T20:42:53.563Z,99024.61
2018-11-03T20:45:06.811Z,99022.38
2018-11-03T20:47:19.066Z,99024.14
2018-11-03T20:49:31.431Z,99025.82
2018-11-03T20:51:43.685Z,99023.69
2018-11-03T20:53:56.015Z,99019.03
2018-11-03T20:56:08.703Z,99017.05
2018-11-03T20:58:20.969Z,99016.18
2018-11-03T21:00:33.289Z,99014.20
2018-11-03T21:02:45.930Z,99023.16
2018-11-03T21:04:58.128Z,99015.20
2018-11-03T21:07:10.405Z,99017.39
2018-11-03T21:09:22.635Z,99013.89
2018-11-03T21:11:35.003Z,99015.50
2018-11-03T21:13:47.410Z,99016.71
2018-11-03T21:15:59.683Z,99007.33
2018-11-03T21:18:11.933Z,99007.02
2018-11-03T21:20:24.153Z,99010.45
2018-11-03T21:22:36.411Z,99006.64
2018-11-03T21:24:48.659Z,98994.78
2018-11-03T21:27:00.928Z,98988.73
2018-11-03T21:29:13.194Z,98987.44
2018-11-03T21:31:25.512Z,98984.05
2018-11-03T21:33:37.771Z,98975.63
2018-11-03T21:35:50.095Z,98969.53
2018-11-03T21:38:02.400Z,98971.20
2018-11-03T21:40:14.642Z,98969.97
2018-11-03T21:42:27.342Z,98966.47
2018-11-03T21:44:39.683Z,98962.16
2018-11-03T21:46:52.092Z,98964.33
2018-11-03T21:49:04.618Z,98961.17
2018-11-03T21:51:16.862Z,98960.24
2018-11-03T21:53:29.128Z,98953.36
2018-11-03T21:55:41.470Z,98953.73
2018-11-03T21:57:53.697Z,98952.28
2018-11-03T22:00:07.518Z,98942.34
2018-11-03T22:02:20.637Z,98944.10
2018-11-03T22:04:32.914Z,98944.56
2018-11-03T22:06:45.159Z,98942.43
2018-11-03T22:08:57.459Z,98943.17
2018-11-03T22:11:09.726Z,98937.13
2018-11-03T22:13:22.030Z,98940.10
2018-11-03T22:15:34.380Z,98934.47
2018-11-03T22:17:46.608Z,98938.53
2018-11-03T22:19:58.911Z,98937.23
2018-11-03T22:22:11.239Z,98944.10
2018-11-03T22:24:24.525Z,98941.19
2018-11-03T22:26:36.823Z,98939.05
2018-11-03T22:28:49.125Z,98939.98
2018-11-03T22:31:01.364Z,98939.52
2018-11-03T22:33:13.650Z,98930.32
2018-11-03T22:35:25.908Z,98926.82
2018-11-03T22:37:38.289Z,98934.06
2018-11-03T22:39:50.700Z,98926.72
2018-11-03T22:42:03.045Z,98932.23
2018-11-03T22:44:15.241Z,98927.56
2018-11-03T22:46:27.490Z,98922.76
2018-11-03T22:48:39.886Z,98925.73
2018-11-03T22:50:52.275Z,98917.62
2018-11-03T22:53:04.844Z,98920.69
2018-11-03T22:55:17.039Z,98924.06
2018-11-03T22:57:29.286Z,98917.55
2018-11-03T22:59:41.554Z,98915.39
2018-11-03T23:01:53.901Z,98915.95
2018-11-03T23:04:06.110Z,98913.41
2018-11-03T23:06:18.326Z,98911.73
2018-11-03T23:08:30.670Z,98907.83
2018-11-03T23:10:42.903Z,98906.74
2018-11-03T23:12:55.301Z,98896.49
2018-11-03T23:15:07.826Z,98898.73
2018-11-03T23:17:20.065Z,98893.98
2018-11-03T23:19:32.287Z,98895.91
2018-11-03T23:21:44.491Z,98897.31
2018-11-03T23:23:56.733Z,98891.64
2018-11-03T23:26:08.974Z,98891.64
2018-11-03T23:28:21.214Z,98890.50
2018-11-03T23:30:33.457Z,98881.02
2018-11-03T23:32:45.692Z,98870.73
2018-11-03T23:34:57.982Z,98871.58
2018-11-03T23:37:10.213Z,98865.31
2018-11-03T23:39:22.418Z,98860.64
2018-11-03T23:41:35.870Z,98855.50
2018-11-03T23:43:48.158Z,98855.97
2018-11-03T23:46:00.460Z,98854.20
2018-11-03T23:48:12.774Z,98852.53
2018-11-03T23:50:25.130Z,98854.83
2018-11-03T23:52:41.891Z,98852.75
2018-11-03T23:54:54.144Z,98851.45
2018-11-03T23:57:06.410Z,98851.76
2018-11-03T23:59:18.635Z,98849.94
